sensor_id;sensor_type;location;lat;lon;timestamp;pressure;altitude;pressure_sealevel;temperature;humidity
62849;BME280;48941;49.516;8.286;2023-04-07T00:02:10;100419.94;;;7.72;99.71
62849;BME280;48941;49.516;8.286;2023-04-07T00:04:38;100418.25;;;7.71;99.35
62849;BME280;48941;49.516;8.286;2023-04-07T00:07:06;100415.72;;;7.69;99.54
62849;BME280;48941;49.516;8.286;2023-04-07T00:09:33;100415.72;;;7.69;99.10
62849;BME280;48941;49.516;8.286;2023-04-07T00:12:02;100421.94;;;7.68;99.11
62849;BME280;48941;49.516;8.286;2023-04-07T00:14:30;100421.94;;;7.68;98.60
62849;BME280;48941;49.516;8.286;2023-04-07T00:16:59;100414.09;;;7.67;98.75
62849;BME280;48941;49.516;8.286;2023-04-07T00:19:26;100408.91;;;7.65;98.91
62849;BME280;48941;49.516;8.286;2023-04-07T00:21:54;100407.19;;;7.64;99.07
62849;BME280;48941;49.516;8.286;2023-04-07T00:24:22;100395.84;;;7.62;99.32
62849;BME280;48941;49.516;8.286;2023-04-07T00:26:59;100388.75;;;7.63;99.38
62849;BME280;48941;49.516;8.286;2023-04-07T00:29:27;100384.31;;;7.63;99.88
62849;BME280;48941;49.516;8.286;2023-04-07T00:31:55;100382.69;;;7.61;100.00
62849;BME280;48941;49.516;8.286;2023-04-07T00:34:24;100382.09;;;7.57;99.84
62849;BME280;48941;49.516;8.286;2023-04-07T00:36:52;100374.97;;;7.57;100.00
62849;BME280;48941;49.516;8.286;2023-04-07T00:39:20;100374.97;;;7.57;100.00
62849;BME280;48941;49.516;8.286;2023-04-07T00:41:48;100372.50;;;7.54;99.83
62849;BME280;48941;49.516;8.286;2023-04-07T00:44:16;100375.16;;;7.54;99.82
62849;BME280;48941;49.516;8.286;2023-04-07T00:46:46;100364.69;;;7.53;99.84
62849;BME280;48941;49.516;8.286;2023-04-07T00:49:14;100371.03;;;7.50;99.82
62849;BME280;48941;49.516;8.286;2023-04-07T00:51:44;100364.69;;;7.53;99.43
62849;BME280;48941;49.516;8.286;2023-04-07T00:54:12;100358.50;;;7.52;100.00
62849;BME280;48941;49.516;8.286;2023-04-07T00:56:41;100348.97;;;7.50;100.00
62849;BME280;48941;49.516;8.286;2023-04-07T00:59:09;100355.22;;;7.49;100.00
62849;BME280;48941;49.516;8.286;2023-04-07T01:01:43;100353.44;;;7.49;100.00
62849;BME280;48941;49.516;8.286;2023-04-07T01:04:20;100348.03;;;7.51;100.00
62849;BME280;48941;49.516;8.286;2023-04-07T01:06:54;100345.25;;;7.52;100.00
62849;BME280;48941;49.516;8.286;2023-04-07T01:09:28;100345.41;;;7.51;100.00
62849;BME280;48941;49.516;8.286;2023-04-07T01:12:04;100335.63;;;7.51;100.00
62849;BME280;48941;49.516;8.286;2023-04-07T01:14:36;100339.13;;;7.52;100.00
62849;BME280;48941;49.516;8.286;2023-04-07T01:17:09;100339.03;;;7.53;100.00
62849;BME280;48941;49.516;8.286;2023-04-07T01:19:41;100335.63;;;7.51;100.00
62849;BME280;48941;49.516;8.286;2023-04-07T01:22:14;100339.88;;;7.54;100.00
62849;BME280;48941;49.516;8.286;2023-04-07T01:24:53;100327.03;;;7.48;99.99
62849;BME280;48941;49.516;8.286;2023-04-07T01:27:35;100325.13;;;7.50;99.93
62849;BME280;48941;49.516;8.286;2023-04-07T01:30:08;100319.50;;;7.54;99.57
62849;BME280;48941;49.516;8.286;2023-04-07T01:32:38;100318.13;;;7.49;99.20
62849;BME280;48941;49.516;8.286;2023-04-07T01:35:09;100315.59;;;7.47;99.40
62849;BME280;48941;49.516;8.286;2023-04-07T01:37:39;100326.19;;;7.47;99.42
62849;BME280;48941;49.516;8.286;2023-04-07T01:40:08;100323.66;;;7.46;99.62
62849;BME280;48941;49.516;8.286;2023-04-07T01:42:37;100311.47;;;7.43;99.70
62849;BME280;48941;49.516;8.286;2023-04-07T01:45:09;100309.75;;;7.42;99.38
62849;BME280;48941;49.516;8.286;2023-04-07T01:47:37;100305.28;;;7.43;99.59
62849;BME280;48941;49.516;8.286;2023-04-07T01:50:06;100308.91;;;7.42;99.51
62849;BME280;48941;49.516;8.286;2023-04-07T01:52:35;100307.09;;;7.42;99.56
62849;BME280;48941;49.516;8.286;2023-04-07T01:55:05;100309.00;;;7.40;99.53
62849;BME280;48941;49.516;8.286;2023-04-07T01:57:33;100297.66;;;7.38;99.42
62849;BME280;48941;49.516;8.286;2023-04-07T02:00:00;100306.59;;;7.37;99.57
62849;BME280;48941;49.516;8.286;2023-04-07T02:02:30;100297.75;;;7.36;99.54
62849;BME280;48941;49.516;8.286;2023-04-07T02:05:03;100292.03;;;7.30;99.73
62849;BME280;48941;49.516;8.286;2023-04-07T02:07:44;100295.09;;;7.24;99.96
62849;BME280;48941;49.516;8.286;2023-04-07T02:10:15;100294.38;;;7.22;99.89
62849;BME280;48941;49.516;8.286;2023-04-07T02:12:44;100297.94;;;7.21;100.00
62849;BME280;48941;49.516;8.286;2023-04-07T02:15:12;100286.63;;;7.18;100.00
62849;BME280;48941;49.516;8.286;2023-04-07T02:17:46;100302.50;;;7.18;100.00
62849;BME280;48941;49.516;8.286;2023-04-07T02:20:15;100297.44;;;7.15;100.00
62849;BME280;48941;49.516;8.286;2023-04-07T02:22:43;100296.59;;;7.15;100.00
62849;BME280;48941;49.516;8.286;2023-04-07T02:25:22;100286.94;;;7.14;100.00
62849;BME280;48941;49.516;8.286;2023-04-07T02:27:50;100292.13;;;7.15;99.99
62849;BME280;48941;49.516;8.286;2023-04-07T02:30:18;100291.28;;;7.15;100.00
62849;BME280;48941;49.516;8.286;2023-04-07T02:32:47;100291.16;;;7.16;99.95
62849;BME280;48941;49.516;8.286;2023-04-07T02:35:15;100285.03;;;7.16;99.83
62849;BME280;48941;49.516;8.286;2023-04-07T02:37:44;100284.28;;;7.14;100.00
62849;BME280;48941;49.516;8.286;2023-04-07T02:40:12;100280.88;;;7.12;99.72
62849;BME280;48941;49.516;8.286;2023-04-07T02:42:40;100286.28;;;7.10;99.71
62849;BME280;48941;49.516;8.286;2023-04-07T02:45:09;100284.69;;;7.08;100.00
62849;BME280;48941;49.516;8.286;2023-04-07T02:47:37;100283.13;;;7.05;99.76
62849;BME280;48941;49.516;8.286;2023-04-07T02:50:07;100285.03;;;7.03;100.00
62849;BME280;48941;49.516;8.286;2023-04-07T02:52:35;100282.56;;;7.00;100.00
62849;BME280;48941;49.516;8.286;2023-04-07T02:55:03;100285.53;;;6.95;100.00
62849;BME280;48941;49.516;8.286;2023-04-07T02:57:32;100284.88;;;6.92;100.00
62849;BME280;48941;49.516;8.286;2023-04-07T02:59:59;100286.56;;;6.93;100.00
62849;BME280;48941;49.516;8.286;2023-04-07T03:02:27;100277.59;;;6.95;100.00
62849;BME280;48941;49.516;8.286;2023-04-07T03:04:55;100276.75;;;6.95;100.00
62849;BME280;48941;49.516;8.286;2023-04-07T03:07:24;100271.44;;;6.95;100.00
62849;BME280;48941;49.516;8.286;2023-04-07T03:09:52;100264.34;;;6.95;100.00
62849;BME280;48941;49.516;8.286;2023-04-07T03:12:20;100271.44;;;6.95;100.00
62849;BME280;48941;49.516;8.286;2023-04-07T03:14:47;100263.59;;;6.93;100.00
62849;BME280;48941;49.516;8.286;2023-04-07T03:17:15;100258.59;;;6.89;100.00
62849;BME280;48941;49.516;8.286;2023-04-07T03:19:43;100258.59;;;6.89;100.00
62849;BME280;48941;49.516;8.286;2023-04-07T03:22:12;100257.75;;;6.88;100.00
62849;BME280;48941;49.516;8.286;2023-04-07T03:24:41;100256.81;;;6.89;100.00
62849;BME280;48941;49.516;8.286;2023-04-07T03:27:09;100256.81;;;6.89;100.00
62849;BME280;48941;49.516;8.286;2023-04-07T03:29:36;100257.66;;;6.90;100.00
62849;BME280;48941;49.516;8.286;2023-04-07T03:32:04;100261.13;;;6.90;100.00
62849;BME280;48941;49.516;8.286;2023-04-07T03:34:32;100257.56;;;6.91;100.00
62849;BME280;48941;49.516;8.286;2023-04-07T03:37:00;100259.34;;;6.91;100.00
62849;BME280;48941;49.516;8.286;2023-04-07T03:39:27;100255.66;;;6.93;99.94
62849;BME280;48941;49.516;8.286;2023-04-07T03:41:56;100248.56;;;6.94;99.67
62849;BME280;48941;49.516;8.286;2023-04-07T03:44:24;100258.31;;;6.93;99.77
62849;BME280;48941;49.516;8.286;2023-04-07T03:46:52;100261.78;;;6.94;99.81
62849;BME280;48941;49.516;8.286;2023-04-07T03:49:20;100267.94;;;6.94;99.76
62849;BME280;48941;49.516;8.286;2023-04-07T03:51:47;100263.50;;;6.95;99.70
62849;BME280;48941;49.516;8.286;2023-04-07T03:54:15;100266.91;;;6.97;99.88
62849;BME280;48941;49.516;8.286;2023-04-07T03:56:43;100269.53;;;6.97;99.77
62849;BME280;48941;49.516;8.286;2023-04-07T03:59:12;100268.66;;;6.96;100.00
62849;BME280;48941;49.516;8.286;2023-04-07T04:01:40;100269.41;;;6.98;99.80
62849;BME280;48941;49.516;8.286;2023-04-07T04:04:08;100266.75;;;6.98;100.00
62849;BME280;48941;49.516;8.286;2023-04-07T04:06:36;100273.88;;;6.98;100.00
62849;BME280;48941;49.516;8.286;2023-04-07T04:09:03;100266.91;;;6.97;100.00
62849;BME280;48941;49.516;8.286;2023-04-07T04:11:31;100265.94;;;6.98;100.00
62849;BME280;48941;49.516;8.286;2023-04-07T04:13:59;100270.16;;;7.01;99.59
62849;BME280;48941;49.516;8.286;2023-04-07T04:16:28;100264.66;;;7.04;99.48
62849;BME280;48941;49.516;8.286;2023-04-07T04:18:57;100279.50;;;7.06;99.48
62849;BME280;48941;49.516;8.286;2023-04-07T04:21:25;100270.50;;;7.09;99.44
62849;BME280;48941;49.516;8.286;2023-04-07T04:23:53;100270.63;;;7.07;99.19
62849;BME280;48941;49.516;8.286;2023-04-07T04:26:20;100270.63;;;7.07;98.97
62849;BME280;48941;49.516;8.286;2023-04-07T04:28:51;100265.50;;;7.04;99.19
62849;BME280;48941;49.516;8.286;2023-04-07T04:31:19;100267.31;;;7.04;99.31
62849;BME280;48941;49.516;8.286;2023-04-07T04:33:48;100268.38;;;7.01;99.40
62849;BME280;48941;49.516;8.286;2023-04-07T04:36:16;100270.28;;;6.99;99.69
62849;BME280;48941;49.516;8.286;2023-04-07T04:38:44;100265.00;;;6.99;99.56
62849;BME280;48941;49.516;8.286;2023-04-07T04:41:12;100267.00;;;6.95;99.74
62849;BME280;48941;49.516;8.286;2023-04-07T04:43:39;100260.94;;;6.93;99.98
62849;BME280;48941;49.516;8.286;2023-04-07T04:46:07;100263.88;;;6.89;100.00
62849;BME280;48941;49.516;8.286;2023-04-07T04:48:35;100258.59;;;6.89;100.00
62849;BME280;48941;49.516;8.286;2023-04-07T04:51:06;100266.44;;;6.90;100.00
62849;BME280;48941;49.516;8.286;2023-04-07T04:53:33;100273.63;;;6.88;100.00
62849;BME280;48941;49.516;8.286;2023-04-07T04:56:01;100271.00;;;6.88;100.00
62849;BME280;48941;49.516;8.286;2023-04-07T04:58:29;100272.56;;;6.91;100.00
62849;BME280;48941;49.516;8.286;2023-04-07T05:00:56;100272.69;;;6.89;100.00
62849;BME280;48941;49.516;8.286;2023-04-07T05:03:26;100275.34;;;6.89;100.00
62849;BME280;48941;49.516;8.286;2023-04-07T05:05:54;100274.28;;;6.92;100.00
62849;BME280;48941;49.516;8.286;2023-04-07T05:08:24;100268.03;;;6.93;100.00
62849;BME280;48941;49.516;8.286;2023-04-07T05:10:51;100266.34;;;6.92;100.00
62849;BME280;48941;49.516;8.286;2023-04-07T05:13:20;100279.69;;;6.90;100.00
62849;BME280;48941;49.516;8.286;2023-04-07T05:15:48;100273.63;;;6.88;100.00
62849;BME280;48941;49.516;8.286;2023-04-07T05:18:16;100274.59;;;6.87;100.00
62849;BME280;48941;49.516;8.286;2023-04-07T05:20:43;100265.91;;;6.85;100.00
62849;BME280;48941;49.516;8.286;2023-04-07T05:23:11;100260.63;;;6.85;100.00
62849;BME280;48941;49.516;8.286;2023-04-07T05:25:40;100257.09;;;6.85;100.00
62849;BME280;48941;49.516;8.286;2023-04-07T05:28:08;100255.19;;;6.87;100.00
62849;BME280;48941;49.516;8.286;2023-04-07T05:30:36;100252.53;;;6.87;100.00
62849;BME280;48941;49.516;8.286;2023-04-07T05:33:04;100251.72;;;6.86;100.00
62849;BME280;48941;49.516;8.286;2023-04-07T05:35:31;100255.19;;;6.87;100.00
62849;BME280;48941;49.516;8.286;2023-04-07T05:37:59;100256.16;;;6.86;100.00
62849;BME280;48941;49.516;8.286;2023-04-07T05:40:27;100253.28;;;6.89;100.00
62849;BME280;48941;49.516;8.286;2023-04-07T05:42:56;100261.03;;;6.92;100.00
62849;BME280;48941;49.516;8.286;2023-04-07T05:45:24;100260.94;;;6.93;100.00
62849;BME280;48941;49.516;8.286;2023-04-07T05:47:52;100263.50;;;6.95;100.00
62849;BME280;48941;49.516;8.286;2023-04-07T05:50:20;100272.94;;;6.99;100.00
62849;BME280;48941;49.516;8.286;2023-04-07T05:52:47;100269.22;;;7.02;100.00
62849;BME280;48941;49.516;8.286;2023-04-07T05:55:15;100271.88;;;7.02;100.00
62849;BME280;48941;49.516;8.286;2023-04-07T05:57:43;100270.06;;;7.02;100.00
62849;BME280;48941;49.516;8.286;2023-04-07T06:00:13;100270.91;;;7.03;100.00
62849;BME280;48941;49.516;8.286;2023-04-07T06:02:41;100273.38;;;7.06;100.00
62849;BME280;48941;49.516;8.286;2023-04-07T06:05:09;100282.78;;;7.10;100.00
62849;BME280;48941;49.516;8.286;2023-04-07T06:07:37;100283.53;;;7.12;100.00
62849;BME280;48941;49.516;8.286;2023-04-07T06:10:06;100281.72;;;7.12;99.87
62849;BME280;48941;49.516;8.286;2023-04-07T06:12:34;100284.28;;;7.14;100.00
62849;BME280;48941;49.516;8.286;2023-04-07T06:15:01;100285.13;;;7.14;100.00
62849;BME280;48941;49.516;8.286;2023-04-07T06:17:31;100288.84;;;7.12;100.00
62849;BME280;48941;49.516;8.286;2023-04-07T06:19:58;100291.28;;;7.15;100.00
62849;BME280;48941;49.516;8.286;2023-04-07T06:22:26;100295.72;;;7.14;99.96
62849;BME280;48941;49.516;8.286;2023-04-07T06:24:54;100299.25;;;7.15;99.95
62849;BME280;48941;49.516;8.286;2023-04-07T06:27:22;100284.09;;;7.17;99.77
62849;BME280;48941;49.516;8.286;2023-04-07T06:29:49;100285.78;;;7.18;99.75
62849;BME280;48941;49.516;8.286;2023-04-07T06:32:17;100284.84;;;7.19;99.74
62849;BME280;48941;49.516;8.286;2023-04-07T06:34:47;100287.47;;;7.19;99.96
62849;BME280;48941;49.516;8.286;2023-04-07T06:37:14;100283.03;;;7.20;100.00
62849;BME280;48941;49.516;8.286;2023-04-07T06:39:42;100293.53;;;7.21;99.69
62849;BME280;48941;49.516;8.286;2023-04-07T06:42:10;100286.41;;;7.22;99.89
62849;BME280;48941;49.516;8.286;2023-04-07T06:44:38;100293.41;;;7.23;99.66
62849;BME280;48941;49.516;8.286;2023-04-07T06:47:06;100288.00;;;7.24;99.24
62849;BME280;48941;49.516;8.286;2023-04-07T06:49:34;100293.22;;;7.26;98.92
62849;BME280;48941;49.516;8.286;2023-04-07T06:52:04;100289.50;;;7.28;98.89
62849;BME280;48941;49.516;8.286;2023-04-07T06:54:32;100288.56;;;7.29;98.90
62849;BME280;48941;49.516;8.286;2023-04-07T06:57:00;100286.66;;;7.31;99.35
62849;BME280;48941;49.516;8.286;2023-04-07T06:59:28;100283.56;;;7.37;99.13
62849;BME280;48941;49.516;8.286;2023-04-07T07:01:55;100282.41;;;7.42;99.19
62849;BME280;48941;49.516;8.286;2023-04-07T07:04:23;100279.25;;;7.49;99.47
62849;BME280;48941;49.516;8.286;2023-04-07T07:06:52;100286.34;;;7.62;99.95
62849;BME280;48941;49.516;8.286;2023-04-07T07:09:22;100280.91;;;7.76;99.67
62849;BME280;48941;49.516;8.286;2023-04-07T07:11:50;100287.69;;;7.93;99.37
62849;BME280;48941;49.516;8.286;2023-04-07T07:14:18;100278.53;;;8.10;99.35
62849;BME280;48941;49.516;8.286;2023-04-07T07:16:45;100280.91;;;8.26;97.93
62849;BME280;48941;49.516;8.286;2023-04-07T07:19:13;100276.75;;;8.47;96.70
62849;BME280;48941;49.516;8.286;2023-04-07T07:21:41;100283.44;;;8.64;95.72
62849;BME280;48941;49.516;8.286;2023-04-07T07:24:09;100282.31;;;8.80;94.94
62849;BME280;48941;49.516;8.286;2023-04-07T07:26:38;100281.91;;;8.97;94.13
62849;BME280;48941;49.516;8.286;2023-04-07T07:29:09;100277.25;;;9.12;92.86
62849;BME280;48941;49.516;8.286;2023-04-07T07:31:37;100277.91;;;9.27;91.92
62849;BME280;48941;49.516;8.286;2023-04-07T07:34:05;100283.13;;;9.40;91.67
62849;BME280;48941;49.516;8.286;2023-04-07T07:36:33;100275.03;;;9.52;91.18
62849;BME280;48941;49.516;8.286;2023-04-07T07:39:01;100280.72;;;9.70;91.63
62849;BME280;48941;49.516;8.286;2023-04-07T07:41:28;100290.28;;;9.84;89.02
62849;BME280;48941;49.516;8.286;2023-04-07T07:43:58;100284.25;;;9.93;88.44
62849;BME280;48941;49.516;8.286;2023-04-07T07:46:25;100288.59;;;10.06;87.30
62849;BME280;48941;49.516;8.286;2023-04-07T07:48:53;100291.38;;;10.15;87.65
62849;BME280;48941;49.516;8.286;2023-04-07T07:51:21;100293.41;;;10.23;87.65
62849;BME280;48941;49.516;8.286;2023-04-07T07:53:49;100292.91;;;10.29;87.30
62849;BME280;48941;49.516;8.286;2023-04-07T07:56:18;100294.63;;;10.42;85.99
62849;BME280;48941;49.516;8.286;2023-04-07T07:58:45;100294.97;;;10.48;86.48
62849;BME280;48941;49.516;8.286;2023-04-07T08:01:14;100300.53;;;10.56;85.45
62849;BME280;48941;49.516;8.286;2023-04-07T08:03:42;100295.16;;;10.68;85.98
62849;BME280;48941;49.516;8.286;2023-04-07T08:06:14;100293.69;;;10.75;85.09
62849;BME280;48941;49.516;8.286;2023-04-07T08:08:42;100298.38;;;10.83;85.25
62849;BME280;48941;49.516;8.286;2023-04-07T08:11:09;100296.53;;;10.94;86.06
62849;BME280;48941;49.516;8.286;2023-04-07T08:13:37;100297.44;;;11.05;84.48
62849;BME280;48941;49.516;8.286;2023-04-07T08:16:05;100305.88;;;11.10;83.36
62849;BME280;48941;49.516;8.286;2023-04-07T08:18:34;100300.03;;;11.16;82.14
62849;BME280;48941;49.516;8.286;2023-04-07T08:21:03;100307.78;;;11.19;82.71
62849;BME280;48941;49.516;8.286;2023-04-07T08:23:31;100313.56;;;11.24;83.39
62849;BME280;48941;49.516;8.286;2023-04-07T08:25:58;100313.63;;;11.34;83.48
62849;BME280;48941;49.516;8.286;2023-04-07T08:28:26;100315.53;;;11.43;83.58
62849;BME280;48941;49.516;8.286;2023-04-07T08:30:54;100313.19;;;11.50;82.26
62849;BME280;48941;49.516;8.286;2023-04-07T08:33:22;100313.78;;;11.53;79.82
62849;BME280;48941;49.516;8.286;2023-04-07T08:35:51;100320.53;;;11.57;78.53
62849;BME280;48941;49.516;8.286;2023-04-07T08:38:19;100318.00;;;11.56;78.00
62849;BME280;48941;49.516;8.286;2023-04-07T08:40:47;100314.38;;;11.57;78.07
62849;BME280;48941;49.516;8.286;2023-04-07T08:43:17;100320.53;;;11.57;78.38
62849;BME280;48941;49.516;8.286;2023-04-07T08:45:46;100328.13;;;11.62;78.25
62849;BME280;48941;49.516;8.286;2023-04-07T08:48:17;100331.69;;;11.63;78.27
62849;BME280;48941;49.516;8.286;2023-04-07T08:50:45;100326.59;;;11.60;79.13
62849;BME280;48941;49.516;8.286;2023-04-07T08:53:22;100333.47;;;11.62;78.17
62849;BME280;48941;49.516;8.286;2023-04-07T08:55:51;100325.22;;;11.65;77.52
62849;BME280;48941;49.516;8.286;2023-04-07T08:58:19;100335.25;;;11.73;78.10
62849;BME280;48941;49.516;8.286;2023-04-07T09:00:48;100331.63;;;11.84;77.99
62849;BME280;48941;49.516;8.286;2023-04-07T09:03:16;100325.78;;;11.90;76.14
62849;BME280;48941;49.516;8.286;2023-04-07T09:05:45;100336.25;;;12.03;76.34
62849;BME280;48941;49.516;8.286;2023-04-07T09:08:13;100333.00;;;11.99;76.25
62849;BME280;48941;49.516;8.286;2023-04-07T09:10:42;100330.34;;;11.99;76.19
62849;BME280;48941;49.516;8.286;2023-04-07T09:13:10;100336.53;;;12.00;76.71
62849;BME280;48941;49.516;8.286;2023-04-07T09:15:38;100336.81;;;11.97;76.24
62849;BME280;48941;49.516;8.286;2023-04-07T09:18:06;100348.56;;;11.94;76.62
62849;BME280;48941;49.516;8.286;2023-04-07T09:20:53;100347.06;;;11.80;76.38
62849;BME280;48941;49.516;8.286;2023-04-07T09:23:29;100351.84;;;11.76;76.58
62849;BME280;48941;49.516;8.286;2023-04-07T09:26:09;100356.00;;;11.69;77.41
62849;BME280;48941;49.516;8.286;2023-04-07T09:28:46;100355.28;;;11.67;77.69
62849;BME280;48941;49.516;8.286;2023-04-07T09:31:14;100352.44;;;11.59;77.60
62849;BME280;48941;49.516;8.286;2023-04-07T09:33:42;100358.53;;;11.50;78.61
62849;BME280;48941;49.516;8.286;2023-04-07T09:36:10;100353.47;;;11.47;79.99
62849;BME280;48941;49.516;8.286;2023-04-07T09:38:39;100355.66;;;11.42;81.45
62849;BME280;48941;49.516;8.286;2023-04-07T09:41:10;100357.81;;;11.48;82.51
62849;BME280;48941;49.516;8.286;2023-04-07T09:43:40;100358.94;;;11.45;82.62
62849;BME280;48941;49.516;8.286;2023-04-07T09:46:09;100368.63;;;11.46;81.98
62849;BME280;48941;49.516;8.286;2023-04-07T09:48:37;100357.88;;;11.57;81.95
62849;BME280;48941;49.516;8.286;2023-04-07T09:51:07;100361.84;;;11.63;80.23
62849;BME280;48941;49.516;8.286;2023-04-07T09:53:41;100357.59;;;11.82;79.28
62849;BME280;48941;49.516;8.286;2023-04-07T09:56:11;100353.78;;;11.95;79.68
62849;BME280;48941;49.516;8.286;2023-04-07T09:58:39;100360.47;;;12.11;77.03
62849;BME280;48941;49.516;8.286;2023-04-07T10:01:07;100360.06;;;12.15;76.03
62849;BME280;48941;49.516;8.286;2023-04-07T10:03:36;100362.81;;;12.35;75.23
62849;BME280;48941;49.516;8.286;2023-04-07T10:06:05;100364.00;;;12.62;74.43
62849;BME280;48941;49.516;8.286;2023-04-07T10:08:35;100364.34;;;12.78;73.65
62849;BME280;48941;49.516;8.286;2023-04-07T10:11:04;100365.75;;;13.02;72.11
62849;BME280;48941;49.516;8.286;2023-04-07T10:13:35;100365.91;;;13.20;68.96
62849;BME280;48941;49.516;8.286;2023-04-07T10:16:04;100367.75;;;13.29;69.16
62849;BME280;48941;49.516;8.286;2023-04-07T10:18:34;100362.13;;;13.42;67.67
62849;BME280;48941;49.516;8.286;2023-04-07T10:21:03;100362.97;;;13.62;68.08
62849;BME280;48941;49.516;8.286;2023-04-07T10:23:46;100364.41;;;14.03;66.23
62849;BME280;48941;49.516;8.286;2023-04-07T10:26:17;100370.00;;;14.20;64.97
62849;BME280;48941;49.516;8.286;2023-04-07T10:28:50;100359.94;;;14.31;63.35
62849;BME280;48941;49.516;8.286;2023-04-07T10:31:21;100364.16;;;14.34;63.87
62849;BME280;48941;49.516;8.286;2023-04-07T10:33:50;100369.34;;;14.35;63.69
62849;BME280;48941;49.516;8.286;2023-04-07T10:36:19;100367.50;;;14.46;64.70
62849;BME280;48941;49.516;8.286;2023-04-07T10:39:18;100373.59;;;14.38;65.19
62849;BME280;48941;49.516;8.286;2023-04-07T10:41:46;100373.91;;;14.25;64.89
62849;BME280;48941;49.516;8.286;2023-04-07T10:44:46;100380.31;;;14.14;62.71
62849;BME280;48941;49.516;8.286;2023-04-07T10:47:16;100375.16;;;13.93;64.26
62849;BME280;48941;49.516;8.286;2023-04-07T10:50:17;100373.50;;;13.83;66.25
62849;BME280;48941;49.516;8.286;2023-04-07T10:52:46;100378.16;;;13.71;65.54
62849;BME280;48941;49.516;8.286;2023-04-07T10:55:34;100376.78;;;13.57;66.26
62849;BME280;48941;49.516;8.286;2023-04-07T10:58:16;100385.09;;;13.44;66.99
62849;BME280;48941;49.516;8.286;2023-04-07T11:01:19;100384.53;;;13.41;68.13
62849;BME280;48941;49.516;8.286;2023-04-07T11:03:57;100388.75;;;13.33;66.78
62849;BME280;48941;49.516;8.286;2023-04-07T11:06:26;100383.53;;;13.22;67.22
62849;BME280;48941;49.516;8.286;2023-04-07T11:08:54;100386.06;;;13.14;67.77
62849;BME280;48941;49.516;8.286;2023-04-07T11:11:36;100388.56;;;13.06;67.28
62849;BME280;48941;49.516;8.286;2023-04-07T11:14:04;100381.09;;;13.00;68.17
62849;BME280;48941;49.516;8.286;2023-04-07T11:16:41;100378.28;;;12.91;69.70
62849;BME280;48941;49.516;8.286;2023-04-07T11:19:10;100381.25;;;12.88;69.29
62849;BME280;48941;49.516;8.286;2023-04-07T11:21:38;100381.50;;;12.85;70.12
62849;BME280;48941;49.516;8.286;2023-04-07T11:24:06;100380.53;;;12.86;70.33
62849;BME280;48941;49.516;8.286;2023-04-07T11:26:38;100385.59;;;12.89;69.93
62849;BME280;48941;49.516;8.286;2023-04-07T11:29:07;100387.16;;;12.82;70.42
62849;BME280;48941;49.516;8.286;2023-04-07T11:31:37;100379.69;;;12.76;70.58
62849;BME280;48941;49.516;8.286;2023-04-07T11:34:05;100388.91;;;12.72;70.60
62849;BME280;48941;49.516;8.286;2023-04-07T11:36:38;100385.13;;;12.65;71.25
62849;BME280;48941;49.516;8.286;2023-04-07T11:39:17;100390.34;;;12.66;70.52
62849;BME280;48941;49.516;8.286;2023-04-07T11:41:46;100395.53;;;12.68;68.17
62849;BME280;48941;49.516;8.286;2023-04-07T11:44:14;100390.47;;;12.65;67.82
62849;BME280;48941;49.516;8.286;2023-04-07T11:46:52;100386.97;;;12.64;68.47
62849;BME280;48941;49.516;8.286;2023-04-07T11:49:21;100396.41;;;12.68;69.72
62849;BME280;48941;49.516;8.286;2023-04-07T11:51:57;100394.59;;;12.79;69.43
62849;BME280;48941;49.516;8.286;2023-04-07T11:54:26;100398.22;;;12.78;70.05
62849;BME280;48941;49.516;8.286;2023-04-07T11:56:54;100402.59;;;12.79;70.07
62849;BME280;48941;49.516;8.286;2023-04-07T11:59:23;100408.81;;;12.89;71.14
62849;BME280;48941;49.516;8.286;2023-04-07T12:01:52;100407.41;;;12.85;68.00
62849;BME280;48941;49.516;8.286;2023-04-07T12:04:23;100411.91;;;12.84;67.34
62849;BME280;48941;49.516;8.286;2023-04-07T12:06:51;100409.78;;;12.88;70.06
62849;BME280;48941;49.516;8.286;2023-04-07T12:09:28;100418.28;;;13.03;70.47
62849;BME280;48941;49.516;8.286;2023-04-07T12:11:57;100414.34;;;13.17;70.32
62849;BME280;48941;49.516;8.286;2023-04-07T12:14:25;100415.47;;;13.24;69.47
62849;BME280;48941;49.516;8.286;2023-04-07T12:16:55;100415.19;;;13.27;68.12
62849;BME280;48941;49.516;8.286;2023-04-07T12:19:27;100412.53;;;13.27;67.51
62849;BME280;48941;49.516;8.286;2023-04-07T12:21:55;100418.19;;;13.33;69.19
62849;BME280;48941;49.516;8.286;2023-04-07T12:24:23;100416.34;;;13.44;69.23
62849;BME280;48941;49.516;8.286;2023-04-07T12:26:51;100412.13;;;13.61;69.31
62849;BME280;48941;49.516;8.286;2023-04-07T12:29:18;100409.69;;;13.87;67.69
62849;BME280;48941;49.516;8.286;2023-04-07T12:31:46;100413.84;;;14.19;65.93
62849;BME280;48941;49.516;8.286;2023-04-07T12:34:18;100417.84;;;14.42;65.15
62849;BME280;48941;49.516;8.286;2023-04-07T12:36:46;100410.47;;;14.64;65.32
62849;BME280;48941;49.516;8.286;2023-04-07T12:39:14;100421.13;;;14.73;64.21
62849;BME280;48941;49.516;8.286;2023-04-07T12:41:43;100416.16;;;14.79;63.58
62849;BME280;48941;49.516;8.286;2023-04-07T12:44:11;100421.75;;;14.85;61.78
62849;BME280;48941;49.516;8.286;2023-04-07T12:46:39;100419.31;;;14.74;61.29
62849;BME280;48941;49.516;8.286;2023-04-07T12:49:07;100421.28;;;14.72;60.67
62849;BME280;48941;49.516;8.286;2023-04-07T12:51:37;100423.47;;;14.59;62.23
62849;BME280;48941;49.516;8.286;2023-04-07T12:54:05;100433.47;;;14.57;62.32
62849;BME280;48941;49.516;8.286;2023-04-07T12:56:34;100432.34;;;14.49;63.26
62849;BME280;48941;49.516;8.286;2023-04-07T12:59:02;100426.31;;;14.38;63.71
62849;BME280;48941;49.516;8.286;2023-04-07T13:01:29;100434.56;;;14.26;64.28
62849;BME280;48941;49.516;8.286;2023-04-07T13:03:58;100430.19;;;14.15;65.21
62849;BME280;48941;49.516;8.286;2023-04-07T13:06:26;100438.00;;;13.89;66.75